Airport ID:KE16
Update Time (UTC):21 JAN 19 18:56
Wind Speed (Knots):7
Wind Direction (Magnetic):290
Temperature (°C):12
Dew Point (°C):7
Humidity (%):74
Altimeter (inHg):30.26
Density Altitude (Feet):
Visibility (Miles):10
Clouds (Hundreds of feet):FEW019 FEW030
Present Weather:
METAR:METAR KE16 211855Z AUTO 31009KT 250V320 10SM FEW019 12/07 A3026 RMK AO2 PWINO PNO

The data displayed is for advisory purposes only and is not to be used for flight planning or operations.